Time;durP1;ratioP1;P1;durP2;ratioP2;P2;SDS_P1;SDS_P2;PMS_P1;PMS_P2;Temp;Humidity;BMP_temperature;BMP_pressure;BME280_temperature;BME280_humidity;BME280_pressure;Samples;Min_cycle;Max_cycle;Signal;HPM_P1;HPM_P2
2023/02/25 00:01:13;;;;;;;60.42;28.73;;;;;;;9.24;83.43;99451.84;5033968;28;20029;-63
2023/02/25 00:03:39;;;;;;;50.35;26.45;;;;;;;9.23;83.09;99450.19;5031883;28;20115;-61
2023/02/25 00:06:08;;;;;;;57.63;27.60;;;;;;;8.99;84.65;99453.59;5034692;28;20251;-60
2023/02/25 00:08:34;;;;;;;52.13;26.55;;;;;;;9.04;84.91;99456.56;5032807;28;20033;-63
2023/02/25 00:11:02;;;;;;;61.97;27.05;;;;;;;9.01;85.31;99461.34;5034574;28;20045;-60
2023/02/25 00:13:28;;;;;;;54.28;27.40;;;;;;;8.95;85.54;99449.59;5036127;28;20029;-62
2023/02/25 00:15:57;;;;;;;50.63;26.08;;;;;;;8.63;87.19;99448.47;5036850;28;20115;-63
2023/02/25 00:18:27;;;;;;;52.40;25.73;;;;;;;8.70;86.77;99446.03;5035658;28;20036;-63
2023/02/25 00:20:52;;;;;;;53.67;27.48;;;;;;;8.57;86.50;99454.38;5033803;28;20040;-61
2023/02/25 00:23:18;;;;;;;55.50;27.52;;;;;;;8.53;86.61;99454.84;5033606;28;20025;-63
2023/02/25 00:25:44;;;;;;;56.80;27.85;;;;;;;8.51;86.64;99460.28;5033541;28;20323;-63
2023/02/25 00:28:10;;;;;;;52.38;25.52;;;;;;;8.58;86.18;99456.03;5029333;28;20036;-63
2023/02/25 00:30:38;;;;;;;49.45;24.95;;;;;;;8.60;85.87;99456.69;5034469;28;20045;-61
2023/02/25 00:33:05;;;;;;;62.28;25.67;;;;;;;8.71;85.65;99442.41;5034122;28;20040;-62
2023/02/25 00:35:31;;;;;;;56.40;25.90;;;;;;;8.73;84.54;99439.59;5032409;28;20391;-63
2023/02/25 00:37:57;;;;;;;46.92;23.52;;;;;;;8.63;85.22;99439.72;5034681;28;20029;-62
2023/02/25 00:40:23;;;;;;;49.65;24.10;;;;;;;8.57;85.53;99435.91;5034112;28;20209;-62
2023/02/25 00:42:48;;;;;;;49.03;23.65;;;;;;;8.55;85.21;99437.03;5032362;28;20067;-63
2023/02/25 00:45:14;;;;;;;43.00;22.80;;;;;;;8.47;85.46;99439.63;5034632;28;20033;-61
2023/02/25 00:47:39;;;;;;;46.53;22.60;;;;;;;8.54;85.25;99440.66;5033140;28;20059;-63
2023/02/25 00:50:08;;;;;;;45.90;23.20;;;;;;;8.64;84.14;99438.75;5032152;28;20040;-64
2023/02/25 00:52:33;;;;;;;49.25;24.33;;;;;;;8.53;84.18;99429.28;5033523;28;20604;-62
2023/02/25 00:54:59;;;;;;;45.97;23.50;;;;;;;8.34;84.28;99426.03;5033856;28;20045;-61
2023/02/25 00:57:24;;;;;;;46.47;23.60;;;;;;;8.32;84.87;99423.47;5034581;28;20045;-61
2023/02/25 00:59:50;;;;;;;48.28;22.65;;;;;;;8.35;85.07;99419.78;5033018;28;20038;-61
2023/02/25 01:02:15;;;;;;;44.60;22.58;;;;;;;8.43;84.65;99415.38;5033003;28;20109;-63
2023/02/25 01:04:40;;;;;;;55.08;25.92;;;;;;;8.30;85.31;99412.25;5034030;28;20029;-64
2023/02/25 01:07:06;;;;;;;48.60;22.90;;;;;;;8.53;84.53;99413.44;5034590;28;20048;-64
2023/02/25 01:09:32;;;;;;;50.58;22.95;;;;;;;8.61;83.84;99410.84;5033160;28;20041;-63
2023/02/25 01:11:57;;;;;;;49.15;23.38;;;;;;;8.43;84.32;99410.09;5035242;28;20052;-63
2023/02/25 01:14:24;;;;;;;47.78;22.75;;;;;;;8.38;84.86;99403.63;5034486;28;20109;-61
2023/02/25 01:16:51;;;;;;;46.88;22.05;;;;;;;8.46;84.47;99401.88;5033265;28;20377;-61
2023/02/25 01:19:22;;;;;;;45.63;22.25;;;;;;;8.50;84.45;99397.94;5034938;28;20203;-61
2023/02/25 01:21:50;;;;;;;47.53;23.13;;;;;;;8.50;84.41;99394.47;5034835;28;20041;-61
2023/02/25 01:24:22;;;;;;;47.55;21.77;;;;;;;8.54;83.95;99394.00;5035207;28;20033;-63
2023/02/25 01:26:51;;;;;;;51.97;22.83;;;;;;;8.60;84.04;99397.81;5034606;28;20048;-64
2023/02/25 01:29:20;;;;;;;46.35;23.27;;;;;;;8.54;83.72;99388.72;5030442;28;20037;-64
2023/02/25 01:31:45;;;;;;;44.42;22.33;;;;;;;8.39;84.07;99387.66;5024849;28;21394;-61
2023/02/25 01:34:16;;;;;;;40.35;20.00;;;;;;;8.40;84.46;99389.28;5033328;28;20037;-63
2023/02/25 01:36:42;;;;;;;46.30;21.17;;;;;;;8.43;84.60;99382.88;5033953;28;20064;-63
2023/02/25 01:39:07;;;;;;;43.55;20.63;;;;;;;8.51;84.27;99378.47;5031493;28;20071;-62
2023/02/25 01:41:34;;;;;;;42.17;21.55;;;;;;;8.58;83.57;99371.56;5032761;28;20042;-63
2023/02/25 01:44:21;;;;;;;40.15;21.10;;;;;;;8.57;82.67;99375.19;5032716;28;20114;-60
2023/02/25 01:46:49;;;;;;;45.35;20.50;;;;;;;8.35;82.94;99362.56;5033614;28;20049;-61
2023/02/25 01:49:27;;;;;;;46.63;20.85;;;;;;;8.30;83.47;99370.06;5033211;28;20037;-62
2023/02/25 01:51:58;;;;;;;47.85;22.10;;;;;;;8.04;84.70;99377.97;5031427;28;20065;-64
2023/02/25 01:54:23;;;;;;;51.67;23.92;;;;;;;7.88;84.67;99376.06;5034162;28;20037;-61
2023/02/25 01:56:55;;;;;;;47.67;23.67;;;;;;;7.97;84.57;99372.50;5034578;28;20331;-63
2023/02/25 01:59:25;;;;;;;45.25;21.35;;;;;;;8.12;83.91;99375.38;5033582;28;20075;-61
2023/02/25 02:01:51;;;;;;;44.45;21.98;;;;;;;8.17;82.98;99370.47;5032624;28;20041;-61
2023/02/25 02:04:18;;;;;;;49.03;21.00;;;;;;;8.06;83.00;99383.09;5032619;28;20072;-61
2023/02/25 02:06:46;;;;;;;40.85;19.85;;;;;;;7.92;83.68;99373.94;5034287;28;20251;-61
2023/02/25 02:09:16;;;;;;;48.92;21.30;;;;;;;7.98;84.08;99376.78;5034219;28;20335;-63
2023/02/25 02:11:42;;;;;;;44.90;21.45;;;;;;;8.13;83.24;99370.94;5032734;28;20079;-64
2023/02/25 02:14:12;;;;;;;41.33;20.25;;;;;;;8.20;82.91;99366.69;5033913;28;20037;-63
2023/02/25 02:16:56;;;;;;;43.10;19.88;;;;;;;8.19;81.94;99365.03;5033133;28;20061;-60
2023/02/25 02:19:54;;;;;;;42.13;22.38;;;;;;;8.17;81.63;99365.19;5032310;28;20300;-63
2023/02/25 02:22:50;;;;;;;39.67;19.02;;;;;;;8.16;82.33;99366.19;5031603;28;20076;-61
2023/02/25 02:25:35;;;;;;;41.33;20.80;;;;;;;8.04;81.39;99351.59;5031497;28;20038;-62
2023/02/25 02:28:38;;;;;;;45.95;20.85;;;;;;;7.43;81.91;99367.44;5032002;28;20096;-62
2023/02/25 02:31:35;;;;;;;43.17;20.65;;;;;;;7.56;80.85;99360.81;5031135;28;20083;-61
2023/02/25 02:34:06;;;;;;;36.28;18.27;;;;;;;7.64;78.80;99357.41;5028831;28;20112;-61
2023/02/25 02:37:07;;;;;;;44.72;20.98;;;;;;;7.51;78.58;99360.44;5032878;28;20083;-61
2023/02/25 02:40:08;;;;;;;49.13;20.08;;;;;;;7.44;80.24;99354.13;5031390;28;20377;-61
2023/02/25 02:42:44;;;;;;;40.10;18.67;;;;;;;7.56;79.52;99368.72;5030912;28;20061;-63
2023/02/25 02:45:18;;;;;;;39.97;19.77;;;;;;;7.58;78.97;99365.94;5031034;28;20076;-64
2023/02/25 02:48:15;;;;;;;40.50;18.85;;;;;;;7.73;78.92;99363.59;5035747;28;20335;-62
2023/02/25 02:50:46;;;;;;;38.33;19.20;;;;;;;7.44;78.47;99361.19;5031356;28;20049;-63
2023/02/25 02:53:19;;;;;;;42.42;18.77;;;;;;;7.58;78.01;99360.66;5034589;28;20025;-60
2023/02/25 02:55:50;;;;;;;32.50;18.10;;;;;;;7.55;77.16;99359.16;5035374;28;20331;-63
2023/02/25 02:58:25;;;;;;;37.25;16.50;;;;;;;7.31;78.07;99366.84;5033175;28;20029;-61
2023/02/25 03:00:58;;;;;;;42.95;17.90;;;;;;;7.33;76.94;99364.91;5036321;28;20052;-60
2023/02/25 03:03:34;;;;;;;44.40;19.02;;;;;;;6.98;78.00;99366.50;5035213;28;20041;-61
2023/02/25 03:06:06;;;;;;;91.78;32.45;;;;;;;7.19;79.30;99366.22;5034708;28;20089;-62
2023/02/25 03:08:37;;;;;;;110.25;38.83;;;;;;;7.27;79.34;99358.38;5032301;28;20022;-61
2023/02/25 03:11:04;;;;;;;68.60;27.88;;;;;;;7.40;78.51;99346.69;5034680;28;20060;-60
2023/02/25 03:13:30;;;;;;;91.75;35.85;;;;;;;7.50;76.97;99353.53;5035404;28;20334;-61
2023/02/25 03:15:59;;;;;;;163.68;63.70;;;;;;;7.53;77.74;99347.13;5036646;28;20069;-61
2023/02/25 03:18:35;;;;;;;70.95;29.00;;;;;;;7.51;78.18;99352.53;5035256;28;20034;-60
2023/02/25 03:21:05;;;;;;;52.25;24.50;;;;;;;7.50;78.61;99356.16;5035709;28;20045;-62
2023/02/25 03:23:33;;;;;;;56.95;24.05;;;;;;;7.57;78.43;99353.75;5031052;28;20040;-60
2023/02/25 03:26:25;;;;;;;50.30;23.23;;;;;;;7.63;78.42;99359.22;5036983;28;20048;-63
2023/02/25 03:28:51;;;;;;;46.22;22.98;;;;;;;7.42;79.22;99365.78;5035016;28;20116;-61
2023/02/25 03:31:41;;;;;;;47.83;21.77;;;;;;;7.50;79.67;99365.88;5034437;28;20172;-63
2023/02/25 03:34:13;;;;;;;49.63;21.92;;;;;;;7.32;81.37;99364.06;5033732;28;20356;-62
2023/02/25 03:36:46;;;;;;;49.13;21.90;;;;;;;7.53;80.37;99365.56;5034290;28;20080;-62
2023/02/25 03:39:19;;;;;;;50.20;21.80;;;;;;;7.41;82.31;99361.50;5034776;28;20581;-60
2023/02/25 03:41:50;;;;;;;46.28;22.77;;;;;;;7.44;82.96;99351.50;5035696;28;20049;-63
2023/02/25 03:44:21;;;;;;;49.95;24.50;;;;;;;7.42;83.04;99350.00;5034571;28;20083;-63
2023/02/25 03:46:47;;;;;;;43.17;21.63;;;;;;;7.46;83.27;99349.53;5030586;28;20084;-62
2023/02/25 03:49:20;;;;;;;47.33;21.75;;;;;;;7.41;83.79;99337.81;5034729;28;20278;-61
2023/02/25 03:51:48;;;;;;;46.95;22.45;;;;;;;7.49;83.83;99340.50;5035037;28;20045;-61
2023/02/25 03:54:15;;;;;;;44.85;21.02;;;;;;;7.44;83.31;99332.22;5034837;28;20041;-60
2023/02/25 03:56:47;;;;;;;44.30;20.33;;;;;;;7.50;83.00;99323.72;5030058;28;20199;-61
2023/02/25 03:59:14;;;;;;;46.78;21.25;;;;;;;7.52;82.93;99327.03;5034846;28;20102;-63
2023/02/25 04:01:41;;;;;;;46.20;21.33;;;;;;;7.55;81.71;99329.34;5034634;28;20185;-61
2023/02/25 04:04:07;;;;;;;46.28;20.02;;;;;;;7.58;81.72;99319.34;5034599;28;20033;-63
2023/02/25 04:06:33;;;;;;;42.10;19.25;;;;;;;7.42;81.17;99315.75;5033645;28;20049;-62
2023/02/25 04:08:58;;;;;;;42.15;20.02;;;;;;;7.42;78.35;99311.31;5034537;28;20030;-62
2023/02/25 04:11:24;;;;;;;48.47;20.42;;;;;;;7.51;77.08;99317.47;5034656;28;20034;-61
2023/02/25 04:13:49;;;;;;;42.17;20.40;;;;;;;7.57;78.03;99315.03;5035566;28;20165;-61
2023/02/25 04:16:15;;;;;;;48.15;19.80;;;;;;;7.50;78.61;99321.91;5033982;28;20029;-60
2023/02/25 04:18:41;;;;;;;49.33;20.85;;;;;;;7.51;79.47;99306.94;5034158;28;20033;-62
2023/02/25 04:21:07;;;;;;;47.33;20.92;;;;;;;7.41;80.67;99311.47;5034057;28;20304;-62
2023/02/25 04:23:33;;;;;;;41.60;19.35;;;;;;;7.43;81.48;99312.13;5035546;28;20100;-60
2023/02/25 04:25:59;;;;;;;45.00;21.33;;;;;;;7.45;80.87;99316.28;5034102;28;20040;-60
2023/02/25 04:28:24;;;;;;;53.80;23.25;;;;;;;7.41;81.46;99306.19;5032818;28;20033;-60
2023/02/25 04:30:49;;;;;;;65.97;29.20;;;;;;;7.46;81.55;99311.81;5033685;28;20063;-60
2023/02/25 04:33:15;;;;;;;67.35;27.45;;;;;;;7.43;80.47;99306.88;5035163;28;20536;-64
2023/02/25 04:35:40;;;;;;;43.70;18.45;;;;;;;7.36;80.21;99299.56;5035675;28;20037;-64
2023/02/25 04:38:06;;;;;;;49.05;20.75;;;;;;;7.19;80.19;99300.38;5034635;28;20351;-62
2023/02/25 04:40:31;;;;;;;39.17;18.63;;;;;;;7.29;80.22;99305.59;5033114;28;20037;-63
2023/02/25 04:42:57;;;;;;;37.67;18.25;;;;;;;7.28;78.53;99306.56;5034169;28;20274;-63
2023/02/25 04:45:24;;;;;;;34.90;19.42;;;;;;;7.21;77.19;99306.31;5034916;28;21364;-61
2023/02/25 04:47:56;;;;;;;40.67;20.15;;;;;;;6.99;76.82;99302.34;5034132;28;20235;-62
2023/02/25 04:50:22;;;;;;;37.90;18.30;;;;;;;6.68;77.17;99301.88;5034038;28;20091;-62
2023/02/25 04:52:48;;;;;;;44.63;19.20;;;;;;;6.44;77.05;99293.69;5033716;28;20041;-62
2023/02/25 04:55:13;;;;;;;40.58;18.23;;;;;;;6.62;76.94;99296.38;5034455;28;20029;-61
2023/02/25 04:57:41;;;;;;;36.08;18.63;;;;;;;6.71;77.02;99298.09;5032907;28;20037;-63
2023/02/25 05:00:18;;;;;;;36.45;18.08;;;;;;;6.62;77.42;99302.44;5033532;28;20053;-63
2023/02/25 05:02:45;;;;;;;38.33;18.63;;;;;;;6.63;78.65;99296.22;5032035;28;20041;-60
2023/02/25 05:05:11;;;;;;;143.07;49.88;;;;;;;6.60;79.49;99293.88;5033434;28;20045;-62
2023/02/25 05:07:37;;;;;;;77.68;27.50;;;;;;;6.68;79.24;99288.72;5033512;28;20038;-61
2023/02/25 05:10:04;;;;;;;35.95;18.45;;;;;;;6.62;78.99;99293.72;5035174;28;20041;-64
2023/02/25 05:12:30;;;;;;;36.83;16.90;;;;;;;6.72;78.86;99297.13;5034530;28;20040;-63
2023/02/25 05:14:55;;;;;;;35.72;16.23;;;;;;;6.76;77.91;99282.69;5032849;28;20041;-61
2023/02/25 05:17:20;;;;;;;35.55;17.80;;;;;;;6.65;76.69;99286.38;5033626;28;20368;-60
2023/02/25 05:19:46;;;;;;;28.50;16.05;;;;;;;6.56;76.20;99297.78;5033823;28;20071;-63
2023/02/25 05:22:11;;;;;;;32.03;15.15;;;;;;;6.23;73.97;99298.34;5032961;28;20263;-64
2023/02/25 05:24:37;;;;;;;33.25;17.02;;;;;;;6.26;74.73;99298.06;5032445;28;20033;-63
2023/02/25 05:27:07;;;;;;;37.80;17.27;;;;;;;6.20;76.07;99291.56;5032420;28;20136;-60
2023/02/25 05:29:34;;;;;;;38.67;16.83;;;;;;;6.18;75.46;99285.63;5029811;28;20099;-63
2023/02/25 05:32:00;;;;;;;37.00;17.42;;;;;;;6.29;75.91;99287.28;5034032;28;20057;-62
2023/02/25 05:34:25;;;;;;;38.38;18.30;;;;;;;6.37;75.61;99290.00;5032271;28;20335;-61
2023/02/25 05:36:50;;;;;;;46.80;18.75;;;;;;;6.42;76.37;99298.28;5032046;28;20037;-62
2023/02/25 05:39:16;;;;;;;41.13;18.65;;;;;;;6.48;77.57;99288.97;5032701;28;20335;-62
2023/02/25 05:41:41;;;;;;;38.17;17.02;;;;;;;6.46;76.28;99289.13;5034227;28;20467;-60
2023/02/25 05:44:08;;;;;;;42.30;18.98;;;;;;;6.43;76.79;99278.06;5031866;28;20083;-60
2023/02/25 05:46:34;;;;;;;36.78;16.95;;;;;;;6.22;77.33;99288.78;5032358;28;20037;-60
2023/02/25 05:48:59;;;;;;;41.75;18.98;;;;;;;6.41;77.54;99278.22;5032544;28;20036;-61
2023/02/25 05:51:25;;;;;;;40.63;17.83;;;;;;;6.18;77.60;99290.88;5034820;28;20082;-63
2023/02/25 05:53:51;;;;;;;42.33;19.00;;;;;;;6.36;78.66;99285.72;5032206;28;20041;-64
2023/02/25 05:56:19;;;;;;;39.05;20.38;;;;;;;6.49;78.26;99293.25;5033360;28;20033;-63
2023/02/25 05:58:48;;;;;;;40.90;18.75;;;;;;;6.57;79.23;99298.59;5032805;28;20116;-60
2023/02/25 06:01:21;;;;;;;44.97;20.08;;;;;;;6.63;79.77;99296.22;5032176;28;20063;-60
2023/02/25 06:03:48;;;;;;;50.85;22.65;;;;;;;6.61;80.92;99292.91;5029677;28;20200;-61
2023/02/25 06:06:16;;;;;;;47.30;22.63;;;;;;;6.81;81.54;99285.72;5033457;28;20045;-62
2023/02/25 06:08:46;;;;;;;45.55;22.55;;;;;;;6.93;82.99;99275.78;5031533;28;20223;-63
2023/02/25 06:11:17;;;;;;;58.55;26.25;;;;;;;7.17;83.37;99289.19;5032581;28;20084;-64
2023/02/25 06:13:42;;;;;;;43.42;20.67;;;;;;;7.16;84.18;99289.31;5033468;28;20107;-62
2023/02/25 06:16:08;;;;;;;42.65;21.08;;;;;;;7.38;83.61;99295.97;5033433;28;20335;-62
2023/02/25 06:18:35;;;;;;;39.15;20.83;;;;;;;7.31;84.28;99275.50;5033741;28;20473;-60
2023/02/25 06:21:09;;;;;;;37.55;18.63;;;;;;;6.98;86.26;99276.16;5033518;28;20037;-60
2023/02/25 06:23:36;;;;;;;42.10;20.27;;;;;;;6.94;87.31;99282.72;5031479;28;20040;-60
2023/02/25 06:26:03;;;;;;;38.22;19.98;;;;;;;7.21;87.23;99280.00;5037579;28;20033;-62
2023/02/25 06:28:29;;;;;;;39.90;19.02;;;;;;;7.27;86.27;99286.47;5035774;28;20327;-64
2023/02/25 06:30:55;;;;;;;37.70;19.75;;;;;;;7.46;85.38;99298.66;5036545;28;20052;-62
2023/02/25 06:33:20;;;;;;;37.95;18.52;;;;;;;7.58;84.64;99298.25;5036785;28;20072;-62
2023/02/25 06:35:53;;;;;;;40.33;17.27;;;;;;;7.72;83.83;99296.03;5037457;28;20230;-63
2023/02/25 06:38:19;;;;;;;35.75;18.33;;;;;;;7.60;84.55;99291.03;5036370;28;20036;-62
2023/02/25 06:40:45;;;;;;;37.35;17.90;;;;;;;7.61;83.81;99294.50;5037906;28;20056;-63
2023/02/25 06:43:11;;;;;;;37.38;17.80;;;;;;;7.45;85.10;99283.84;5035898;28;20039;-63
2023/02/25 06:45:36;;;;;;;37.92;18.10;;;;;;;7.63;84.84;99292.53;5036108;28;20218;-61
2023/02/25 06:48:01;;;;;;;34.00;17.90;;;;;;;7.85;83.95;99302.56;5035099;28;20243;-63
2023/02/25 06:50:27;;;;;;;34.63;17.27;;;;;;;8.04;82.78;99296.25;5036692;28;20037;-60
2023/02/25 06:52:52;;;;;;;32.50;17.17;;;;;;;8.19;82.47;99310.50;5037161;28;20041;-60
2023/02/25 06:55:18;;;;;;;33.38;17.67;;;;;;;8.37;82.15;99312.28;5035954;28;20038;-63
2023/02/25 06:57:43;;;;;;;38.38;19.42;;;;;;;8.40;82.65;99314.59;5037324;28;20048;-60
2023/02/25 07:00:09;;;;;;;35.70;18.00;;;;;;;8.60;82.40;99319.47;5036638;28;20049;-63
2023/02/25 07:02:35;;;;;;;42.13;22.45;;;;;;;8.78;82.02;99314.06;5037090;28;20037;-63
2023/02/25 07:05:01;;;;;;;44.50;23.00;;;;;;;8.84;81.81;99310.78;5035813;28;20929;-62
2023/02/25 07:07:27;;;;;;;42.78;20.85;;;;;;;8.90;81.61;99302.22;5035364;28;20049;-62
2023/02/25 07:09:53;;;;;;;41.45;23.00;;;;;;;8.85;81.84;99296.59;5034729;28;20064;-63
2023/02/25 07:12:18;;;;;;;38.22;22.17;;;;;;;8.91;82.16;99298.59;5034542;28;20041;-63
2023/02/25 07:14:44;;;;;;;48.15;25.02;;;;;;;8.93;82.34;99307.19;5036317;28;20037;-63
2023/02/25 07:17:09;;;;;;;48.45;25.50;;;;;;;9.00;82.36;99291.50;5034418;28;20217;-60
2023/02/25 07:19:35;;;;;;;48.50;26.05;;;;;;;8.97;82.52;99273.34;5034905;28;20025;-60
2023/02/25 07:22:00;;;;;;;43.80;22.17;;;;;;;8.79;84.24;99285.84;5035927;28;20043;-61
2023/02/25 07:24:26;;;;;;;44.20;24.08;;;;;;;8.59;85.61;99298.50;5035601;28;20100;-61
2023/02/25 07:26:54;;;;;;;48.13;24.52;;;;;;;8.80;84.74;99290.16;5035607;28;20092;-64
2023/02/25 07:29:20;;;;;;;54.45;29.98;;;;;;;8.91;84.42;99285.38;5034367;28;20044;-62
2023/02/25 07:31:45;;;;;;;53.65;30.45;;;;;;;9.02;84.24;99278.97;5035004;28;20054;-63
2023/02/25 07:34:11;;;;;;;55.15;31.70;;;;;;;9.02;84.27;99294.00;5034191;28;20302;-61
2023/02/25 07:36:37;;;;;;;48.97;27.17;;;;;;;8.89;85.73;99297.94;5034560;28;20038;-61
2023/02/25 07:39:05;;;;;;;49.17;26.17;;;;;;;9.01;86.00;99281.78;5035496;28;20025;-62
2023/02/25 07:41:31;;;;;;;42.83;22.13;;;;;;;9.05;85.53;99289.22;5033704;28;20120;-62
2023/02/25 07:43:57;;;;;;;36.05;19.02;;;;;;;8.98;85.34;99279.47;5034410;28;20029;-64
2023/02/25 07:46:22;;;;;;;34.85;19.52;;;;;;;9.15;85.25;99289.88;5035310;28;20378;-63
2023/02/25 07:48:48;;;;;;;44.42;23.48;;;;;;;9.32;84.99;99276.66;5034236;28;20041;-61
2023/02/25 07:51:17;;;;;;;37.22;19.52;;;;;;;9.25;84.40;99277.34;5035323;28;20037;-61
2023/02/25 07:53:43;;;;;;;35.40;18.83;;;;;;;9.22;85.00;99263.63;5035595;28;20798;-63
2023/02/25 07:56:10;;;;;;;37.08;19.50;;;;;;;9.30;84.24;99268.91;5035702;28;20100;-60
2023/02/25 07:58:36;;;;;;;35.53;18.92;;;;;;;9.42;83.51;99258.88;5035308;28;20504;-61
2023/02/25 08:01:15;;;;;;;37.95;19.75;;;;;;;9.46;83.80;99254.91;5030077;28;20060;-63
2023/02/25 08:03:40;;;;;;;38.20;19.10;;;;;;;9.60;83.81;99252.41;5035040;28;20037;-63
2023/02/25 08:06:07;;;;;;;40.35;20.67;;;;;;;9.76;83.01;99250.72;5032375;28;20414;-64
2023/02/25 08:08:36;;;;;;;37.08;19.98;;;;;;;9.86;82.47;99246.06;5035330;28;20267;-64
2023/02/25 08:11:10;;;;;;;44.85;23.45;;;;;;;9.95;82.40;99241.56;5034612;28;20045;-64
2023/02/25 08:13:37;;;;;;;45.22;22.73;;;;;;;10.01;82.51;99240.88;5034891;28;20092;-61
2023/02/25 08:16:07;;;;;;;40.78;21.88;;;;;;;10.21;82.63;99255.41;5030551;28;20049;-61
2023/02/25 08:18:32;;;;;;;61.75;30.63;;;;;;;10.29;81.53;99251.91;5034119;28;20037;-63
2023/02/25 08:20:57;;;;;;;46.35;25.13;;;;;;;10.38;81.89;99241.09;5034194;28;20044;-63
2023/02/25 08:23:24;;;;;;;43.05;22.33;;;;;;;10.57;81.10;99241.69;5032721;28;20037;-61
2023/02/25 08:25:54;;;;;;;45.90;23.17;;;;;;;10.50;82.31;99239.75;5034183;28;20041;-63
2023/02/25 08:28:22;;;;;;;90.00;37.92;;;;;;;10.32;81.98;99233.84;5029997;28;20037;-62
2023/02/25 08:30:48;;;;;;;45.75;22.85;;;;;;;10.32;82.84;99231.19;5035137;28;20055;-64
2023/02/25 08:33:14;;;;;;;48.75;23.13;;;;;;;10.39;83.06;99218.94;5033387;28;20033;-61
2023/02/25 08:35:39;;;;;;;44.55;22.67;;;;;;;10.60;82.64;99212.22;5034782;28;20047;-63
2023/02/25 08:38:05;;;;;;;37.90;20.17;;;;;;;10.92;81.14;99206.69;5032919;28;20029;-63
2023/02/25 08:40:30;;;;;;;96.25;36.60;;;;;;;11.00;80.70;99206.63;5033397;28;20362;-63
2023/02/25 08:42:56;;;;;;;67.97;31.15;;;;;;;11.22;80.14;99198.84;5033668;28;20041;-63
2023/02/25 08:45:22;;;;;;;40.80;21.45;;;;;;;11.30;80.48;99193.47;5034031;28;20052;-61
2023/02/25 08:47:48;;;;;;;39.75;21.13;;;;;;;11.18;80.75;99183.28;5033951;28;20112;-61
2023/02/25 08:50:15;;;;;;;43.28;22.75;;;;;;;11.26;80.89;99189.53;5033235;28;20251;-61
2023/02/25 08:52:41;;;;;;;43.13;23.05;;;;;;;11.44;80.50;99196.16;5033290;28;20045;-61
2023/02/25 08:55:08;;;;;;;40.45;21.42;;;;;;;11.40;79.97;99189.56;5032932;28;20048;-65
2023/02/25 08:57:33;;;;;;;44.40;23.77;;;;;;;11.40;80.83;99184.25;5033475;28;20164;-62
2023/02/25 08:59:58;;;;;;;41.17;22.45;;;;;;;11.25;81.52;99177.28;5033664;28;20033;-63
2023/02/25 09:02:24;;;;;;;41.00;23.35;;;;;;;11.22;81.71;99181.13;5034580;28;20045;-64
2023/02/25 09:04:50;;;;;;;46.45;23.45;;;;;;;11.32;81.59;99171.06;5033883;28;20041;-60
2023/02/25 09:07:15;;;;;;;47.85;24.38;;;;;;;11.15;82.85;99173.06;5033453;28;20045;-60
2023/02/25 09:09:42;;;;;;;44.28;23.85;;;;;;;10.93;83.71;99165.16;5033409;28;20044;-62
2023/02/25 09:12:08;;;;;;;43.47;23.48;;;;;;;10.78;84.44;99162.44;5033782;28;20029;-63
2023/02/25 09:14:33;;;;;;;45.97;25.60;;;;;;;11.12;84.00;99159.34;5033344;28;20201;-64
2023/02/25 09:17:02;;;;;;;44.05;24.35;;;;;;;11.09;84.33;99155.22;5033736;28;20041;-61
2023/02/25 09:19:28;;;;;;;43.25;21.67;;;;;;;11.20;84.79;99160.09;5029568;28;20072;-62
2023/02/25 09:21:54;;;;;;;44.88;24.23;;;;;;;11.26;83.66;99147.94;5033654;28;20034;-64
2023/02/25 09:24:19;;;;;;;44.45;23.50;;;;;;;11.46;83.75;99141.13;5034198;28;20040;-66
2023/02/25 09:26:46;;;;;;;48.30;23.67;;;;;;;11.63;83.34;99143.59;5033050;28;20239;-64
2023/02/25 09:29:11;;;;;;;45.20;23.70;;;;;;;11.73;82.70;99136.19;5032803;28;20029;-61
2023/02/25 09:31:38;;;;;;;39.92;23.05;;;;;;;11.83;83.56;99137.59;5033477;28;20064;-61
2023/02/25 09:34:06;;;;;;;44.92;22.58;;;;;;;12.03;81.86;99131.69;5034250;28;20072;-61
2023/02/25 09:36:32;;;;;;;45.35;23.52;;;;;;;12.21;81.39;99126.81;5032678;28;20072;-63
2023/02/25 09:38:57;;;;;;;48.10;23.02;;;;;;;12.19;81.35;99122.69;5032491;28;20037;-61
2023/02/25 09:41:44;;;;;;;48.30;22.98;;;;;;;12.31;81.05;99119.34;5032975;28;20257;-60
2023/02/25 09:44:18;;;;;;;47.13;25.02;;;;;;;12.10;81.63;99125.47;5032907;28;20362;-63
2023/02/25 09:46:51;;;;;;;47.03;24.08;;;;;;;12.24;81.55;99118.47;5033654;28;20037;-64
2023/02/25 09:49:25;;;;;;;32.50;17.70;;;;;;;11.96;83.23;99107.75;5032675;28;20033;-63
2023/02/25 09:52:00;;;;;;;34.17;20.92;;;;;;;12.02;83.47;99098.22;5033455;28;20274;-64
2023/02/25 09:54:45;;;;;;;41.30;21.08;;;;;;;12.15;82.99;99095.72;5030345;28;20083;-65
2023/02/25 09:57:17;;;;;;;37.58;20.20;;;;;;;12.13;85.13;99087.13;5031958;28;20047;-60
2023/02/25 09:59:45;;;;;;;44.13;21.95;;;;;;;12.09;84.39;99080.53;5033391;28;20046;-61
2023/02/25 10:02:34;;;;;;;39.55;21.65;;;;;;;12.23;83.54;99074.34;5032816;28;20037;-61
2023/02/25 10:05:03;;;;;;;40.30;21.95;;;;;;;12.33;83.43;99068.72;5034139;28;20313;-61
2023/02/25 10:07:35;;;;;;;38.67;21.92;;;;;;;12.47;83.34;99063.34;5032899;28;20041;-60
2023/02/25 10:10:20;;;;;;;42.88;21.50;;;;;;;12.42;83.43;99067.59;5033476;28;20041;-62
2023/02/25 10:13:00;;;;;;;42.47;21.98;;;;;;;12.55;83.79;99053.66;5033074;28;20041;-63
2023/02/25 10:15:39;;;;;;;48.95;23.00;;;;;;;12.51;82.99;99047.06;5032083;28;20042;-60
2023/02/25 10:18:24;;;;;;;36.10;19.50;;;;;;;12.44;83.84;99049.63;5032286;28;20211;-65
2023/02/25 10:21:13;;;;;;;44.08;23.05;;;;;;;12.26;84.54;99041.31;5032434;28;20077;-64
2023/02/25 10:23:53;;;;;;;42.45;20.98;;;;;;;12.40;83.09;99043.88;5030878;28;20029;-63
2023/02/25 10:26:49;;;;;;;42.67;21.50;;;;;;;12.39;83.06;99044.91;5033404;28;20302;-61
2023/02/25 10:29:38;;;;;;;37.80;20.23;;;;;;;12.35;83.69;99035.66;5028760;28;20060;-60
2023/02/25 10:32:22;;;;;;;40.40;21.20;;;;;;;12.65;82.72;99023.09;5032699;28;20632;-63
2023/02/25 10:34:49;;;;;;;38.95;21.77;;;;;;;12.56;82.18;99015.44;5030054;28;20095;-60
2023/02/25 10:37:25;;;;;;;43.28;22.02;;;;;;;12.77;81.60;99018.06;5031253;28;20385;-63
2023/02/25 10:39:55;;;;;;;42.13;20.90;;;;;;;13.07;81.40;99013.34;5028721;28;20048;-61
2023/02/25 10:42:21;;;;;;;41.10;20.75;;;;;;;13.23;79.85;99009.56;5031827;28;20361;-61
2023/02/25 10:44:48;;;;;;;40.50;21.05;;;;;;;13.38;79.51;99013.75;5031668;28;20045;-66
2023/02/25 10:47:24;;;;;;;40.20;21.85;;;;;;;13.54;77.95;99007.28;5032381;28;20329;-63
2023/02/25 10:50:11;;;;;;;42.13;21.23;;;;;;;13.56;77.48;98999.94;5031829;28;20049;-63
2023/02/25 10:52:53;;;;;;;41.65;21.50;;;;;;;13.53;77.30;98999.50;5033090;28;20040;-61
2023/02/25 10:55:53;;;;;;;41.47;21.33;;;;;;;13.47;77.53;98987.81;5031714;28;20231;-62
2023/02/25 10:58:43;;;;;;;41.15;21.58;;;;;;;13.34;77.84;98990.41;5027604;28;20053;-63
2023/02/25 11:01:16;;;;;;;41.92;21.23;;;;;;;13.26;77.94;98975.44;5029604;28;20057;-63
2023/02/25 11:03:59;;;;;;;40.78;22.30;;;;;;;13.30;77.61;98970.56;5029887;28;20084;-61
2023/02/25 11:06:26;;;;;;;38.03;22.00;;;;;;;13.29;77.65;98967.06;5033847;28;20116;-61
2023/02/25 11:08:55;;;;;;;41.00;20.95;;;;;;;13.45;77.37;98955.25;5034920;28;20037;-60
2023/02/25 11:11:26;;;;;;;45.08;21.90;;;;;;;13.50;77.64;98954.66;5034757;28;20131;-63
2023/02/25 11:13:57;;;;;;;37.22;20.75;;;;;;;13.62;77.01;98955.75;5035554;28;20041;-64
2023/02/25 11:16:23;;;;;;;45.35;21.40;;;;;;;13.78;76.46;98942.06;5035544;28;20045;-62
2023/02/25 11:18:56;;;;;;;40.45;22.00;;;;;;;13.89;76.09;98944.16;5034582;28;20037;-60
2023/02/25 11:21:31;;;;;;;40.60;22.40;;;;;;;13.97;76.32;98935.97;5032265;28;20184;-60
2023/02/25 11:24:01;;;;;;;42.40;21.40;;;;;;;13.95;75.17;98919.38;5036053;28;20033;-61
2023/02/25 11:26:31;;;;;;;39.80;20.80;;;;;;;14.04;75.54;98906.69;5036147;28;20334;-60
2023/02/25 11:29:17;;;;;;;43.65;20.98;;;;;;;13.81;76.17;98912.41;5035321;28;20140;-63
2023/02/25 11:31:49;;;;;;;38.08;19.17;;;;;;;13.98;75.58;98910.16;5035011;28;20064;-63
2023/02/25 11:34:21;;;;;;;37.17;18.67;;;;;;;14.00;74.82;98908.94;5035653;28;20103;-60